createdAt,value
2022-11-22T00:01:07.631Z,42.10
2022-11-22T00:03:35.393Z,46.60
2022-11-22T00:06:03.698Z,45.65
2022-11-22T00:08:33.562Z,47.45
2022-11-22T00:11:01.402Z,42.83
2022-11-22T00:13:29.406Z,40.83
2022-11-22T00:16:04.895Z,50.17
2022-11-22T00:18:32.777Z,46.50
2022-11-22T00:21:08.973Z,43.28
2022-11-22T00:23:36.842Z,48.25
2022-11-22T00:26:04.773Z,44.28
2022-11-22T00:28:32.846Z,43.15
2022-11-22T00:31:00.683Z,46.38
2022-11-22T00:33:28.593Z,46.92
2022-11-22T00:35:57.148Z,43.67
2022-11-22T00:38:25.227Z,49.15
2022-11-22T00:40:53.038Z,39.03
2022-11-22T00:43:21.224Z,43.97
2022-11-22T00:45:49.113Z,38.65
2022-11-22T00:48:16.981Z,38.80
2022-11-22T00:50:45.197Z,44.05
2022-11-22T00:53:13.072Z,40.78
2022-11-22T00:55:40.859Z,37.55
2022-11-22T00:58:09.061Z,41.60
2022-11-22T01:00:37.017Z,45.67
2022-11-22T01:03:04.989Z,43.47
2022-11-22T01:05:33.131Z,41.58
2022-11-22T01:08:01.017Z,40.13
2022-11-22T01:10:29.095Z,41.67
2022-11-22T01:12:58.769Z,45.63
2022-11-22T01:15:26.676Z,45.88
2022-11-22T01:17:54.509Z,46.90
2022-11-22T01:20:23.287Z,44.92
2022-11-22T01:22:51.220Z,44.17
2022-11-22T01:25:19.041Z,40.20
2022-11-22T01:27:47.999Z,48.20
2022-11-22T01:30:16.223Z,41.28
2022-11-22T01:32:45.443Z,43.10
2022-11-22T01:35:13.491Z,46.90
2022-11-22T01:37:42.066Z,45.05
2022-11-22T01:40:11.748Z,45.10
2022-11-22T01:42:54.441Z,45.45
2022-11-22T01:45:31.622Z,42.17
2022-11-22T01:48:18.662Z,46.40
2022-11-22T01:50:50.395Z,42.60
2022-11-22T01:53:25.622Z,47.08
2022-11-22T01:55:55.932Z,50.40
2022-11-22T01:58:24.967Z,41.78
2022-11-22T02:00:54.708Z,37.58
2022-11-22T02:03:23.757Z,39.92
2022-11-22T02:05:53.485Z,46.92
2022-11-22T02:08:40.071Z,43.22
2022-11-22T02:11:09.846Z,45.92
2022-11-22T02:13:43.916Z,46.60
2022-11-22T02:16:12.842Z,42.78
2022-11-22T02:18:41.047Z,43.40
2022-11-22T02:21:09.621Z,42.53
2022-11-22T02:24:03.856Z,45.83
2022-11-22T02:26:32.508Z,45.15
2022-11-22T02:29:06.711Z,40.92
2022-11-22T02:31:43.313Z,43.97
2022-11-22T02:34:12.944Z,40.72
2022-11-22T02:36:50.243Z,46.13
2022-11-22T02:39:26.816Z,45.20
2022-11-22T02:41:57.355Z,43.58
2022-11-22T02:44:25.972Z,44.58
2022-11-22T02:46:55.816Z,48.75
2022-11-22T02:49:25.673Z,46.63
2022-11-22T02:51:54.033Z,41.60
2022-11-22T02:54:22.061Z,46.97
2022-11-22T02:56:50.148Z,45.90
2022-11-22T02:59:18.258Z,43.55
2022-11-22T03:01:48.020Z,51.72
2022-11-22T03:04:25.331Z,53.90
2022-11-22T03:06:57.683Z,42.55
2022-11-22T03:09:27.841Z,53.50
2022-11-22T03:11:56.851Z,46.00
2022-11-22T03:14:24.921Z,48.97
2022-11-22T03:16:53.435Z,44.97
2022-11-22T03:19:21.381Z,42.47
2022-11-22T03:21:49.481Z,47.40
2022-11-22T03:24:19.532Z,43.70
2022-11-22T03:26:49.741Z,40.38
2022-11-22T03:29:18.170Z,40.75
2022-11-22T03:31:46.119Z,41.00
2022-11-22T03:34:15.784Z,44.28
2022-11-22T03:36:44.265Z,47.55
2022-11-22T03:39:12.705Z,44.97
2022-11-22T03:41:40.667Z,37.83
2022-11-22T03:44:08.750Z,42.35
2022-11-22T03:46:36.824Z,47.78
2022-11-22T03:49:04.754Z,51.80
2022-11-22T03:51:32.593Z,47.00
2022-11-22T03:54:00.589Z,49.80
2022-11-22T03:56:28.565Z,45.47
2022-11-22T03:58:56.886Z,47.67
2022-11-22T04:01:25.107Z,48.47
2022-11-22T04:03:53.039Z,50.17
2022-11-22T04:06:20.868Z,48.92
2022-11-22T04:08:48.907Z,43.65
2022-11-22T04:11:16.894Z,42.08
2022-11-22T04:14:03.628Z,51.78
2022-11-22T04:16:31.627Z,50.65
2022-11-22T04:18:59.500Z,48.38
2022-11-22T04:21:36.608Z,50.60
2022-11-22T04:24:31.594Z,61.08
2022-11-22T04:26:59.836Z,44.67
2022-11-22T04:29:28.559Z,54.72
2022-11-22T04:32:15.571Z,52.88
2022-11-22T04:34:43.936Z,62.35
2022-11-22T04:37:11.717Z,53.38
2022-11-22T04:39:39.660Z,52.35
2022-11-22T04:42:26.502Z,46.80
2022-11-22T04:44:54.452Z,49.92
2022-11-22T04:47:42.916Z,52.42
2022-11-22T04:50:32.947Z,56.80
2022-11-22T04:53:00.932Z,55.30
2022-11-22T04:55:28.737Z,57.28
2022-11-22T04:57:59.990Z,49.17
2022-11-22T05:00:32.570Z,56.15
2022-11-22T05:03:00.813Z,57.22
2022-11-22T05:05:29.201Z,55.58
2022-11-22T05:08:00.409Z,51.78
2022-11-22T05:10:28.577Z,54.70
2022-11-22T05:12:57.327Z,55.90
2022-11-22T05:15:25.519Z,52.20
2022-11-22T05:17:53.443Z,54.63
2022-11-22T05:20:21.447Z,53.53
2022-11-22T05:23:08.233Z,54.97
2022-11-22T05:25:36.203Z,48.25
2022-11-22T05:28:04.662Z,56.72
2022-11-22T05:30:32.597Z,57.30
2022-11-22T05:33:00.463Z,54.35
2022-11-22T05:35:28.403Z,59.10
2022-11-22T05:38:00.179Z,61.08
2022-11-22T05:40:28.127Z,52.50
2022-11-22T05:42:57.502Z,55.40
2022-11-22T05:45:25.672Z,60.20
2022-11-22T05:47:53.568Z,62.13
2022-11-22T05:50:24.182Z,57.03
2022-11-22T05:52:58.442Z,54.75
2022-11-22T05:55:26.304Z,39.50
2022-11-22T05:57:54.156Z,42.03
2022-11-22T06:00:22.408Z,53.40
2022-11-22T06:02:50.194Z,55.35
2022-11-22T06:05:18.262Z,54.33
2022-11-22T06:07:46.734Z,54.67
2022-11-22T06:10:14.714Z,56.15
2022-11-22T06:12:43.358Z,50.63
2022-11-22T06:15:11.753Z,54.72
2022-11-22T06:17:39.973Z,59.90
2022-11-22T06:20:09.000Z,55.30
2022-11-22T06:22:36.971Z,55.90
2022-11-22T06:25:06.351Z,53.08
2022-11-22T06:27:34.393Z,54.85
2022-11-22T06:30:02.277Z,54.83
2022-11-22T06:32:34.585Z,48.85
2022-11-22T06:35:03.636Z,40.97
2022-11-22T06:37:31.668Z,50.85
2022-11-22T06:39:59.577Z,51.00
2022-11-22T06:42:27.790Z,41.92
2022-11-22T06:44:55.727Z,45.22
2022-11-22T06:47:23.587Z,45.60
2022-11-22T06:49:51.830Z,47.78
2022-11-22T06:52:19.665Z,46.28
2022-11-22T06:54:47.543Z,39.28
2022-11-22T06:57:16.414Z,53.88
2022-11-22T06:59:44.233Z,59.63
2022-11-22T07:02:12.829Z,58.42
2022-11-22T07:05:02.301Z,47.53
2022-11-22T07:07:28.741Z,48.45
2022-11-22T07:09:57.215Z,52.58
2022-11-22T07:12:24.953Z,47.95
2022-11-22T07:14:52.786Z,53.95
2022-11-22T07:17:20.951Z,47.00
2022-11-22T07:19:48.978Z,52.22
2022-11-22T07:22:16.776Z,46.70
2022-11-22T07:24:44.780Z,51.40
2022-11-22T07:27:12.565Z,50.50
2022-11-22T07:29:40.408Z,54.60
2022-11-22T07:32:08.415Z,48.22
2022-11-22T07:34:36.172Z,43.85
2022-11-22T07:37:08.876Z,51.55
2022-11-22T07:39:37.527Z,47.08
2022-11-22T07:42:05.502Z,50.17
2022-11-22T07:44:33.383Z,52.70
2022-11-22T07:47:01.641Z,50.60
2022-11-22T07:49:29.818Z,50.80
2022-11-22T07:51:59.563Z,51.72
2022-11-22T07:54:27.987Z,51.78
2022-11-22T07:56:55.829Z,45.72
2022-11-22T07:59:23.747Z,45.15
2022-11-22T08:01:52.089Z,39.60
2022-11-22T08:04:20.112Z,39.45
2022-11-22T08:06:48.034Z,40.40
2022-11-22T08:09:16.245Z,35.13
2022-11-22T08:11:44.085Z,42.35
2022-11-22T08:14:12.383Z,42.40
2022-11-22T08:16:40.526Z,39.05
2022-11-22T08:19:09.026Z,37.08
2022-11-22T08:21:40.060Z,40.63
2022-11-22T08:24:08.189Z,37.53
2022-11-22T08:26:36.570Z,38.03
2022-11-22T08:29:12.580Z,42.92
2022-11-22T08:31:42.194Z,38.65
2022-11-22T08:34:10.092Z,40.55
2022-11-22T08:36:38.829Z,38.65
2022-11-22T08:39:07.133Z,39.60
2022-11-22T08:41:34.956Z,38.72
2022-11-22T08:44:02.874Z,47.75
2022-11-22T08:46:31.062Z,41.70
2022-11-22T08:48:58.920Z,43.78
2022-11-22T08:51:26.764Z,43.17
2022-11-22T08:53:55.030Z,41.33
2022-11-22T08:56:23.407Z,40.47
2022-11-22T08:58:51.511Z,41.92
2022-11-22T09:01:21.528Z,45.63
2022-11-22T09:03:50.315Z,51.55
2022-11-22T09:09:35.673Z,55.17
2022-11-22T09:11:56.760Z,54.78
2022-11-22T09:14:25.199Z,55.85
2022-11-22T09:16:53.042Z,62.05
2022-11-22T09:19:21.004Z,62.90
2022-11-22T09:21:49.560Z,73.40
2022-11-22T09:24:17.548Z,61.88
2022-11-22T09:26:45.561Z,67.35
2022-11-22T09:29:15.803Z,58.80
2022-11-22T09:31:43.868Z,52.72
2022-11-22T09:34:11.784Z,52.58
2022-11-22T09:36:40.047Z,58.03
2022-11-22T09:39:10.114Z,53.83
2022-11-22T09:42:12.099Z,48.00
2022-11-22T09:44:45.403Z,54.72
2022-11-22T09:48:02.114Z,52.13
2022-11-22T09:50:36.145Z,51.35
2022-11-22T09:53:17.232Z,60.92
2022-11-22T09:55:50.164Z,49.22
2022-11-22T09:58:41.686Z,54.80
2022-11-22T10:01:44.028Z,51.63
2022-11-22T10:04:21.600Z,52.58
2022-11-22T10:07:22.717Z,47.58
2022-11-22T10:10:04.113Z,51.23
2022-11-22T10:12:59.067Z,45.47
2022-11-22T10:15:54.366Z,54.05
2022-11-22T10:18:38.672Z,53.20
2022-11-22T10:21:18.074Z,49.83
2022-11-22T10:23:47.546Z,49.55
2022-11-22T10:26:29.634Z,52.20
2022-11-22T10:29:37.228Z,51.78
2022-11-22T10:32:28.805Z,51.35
2022-11-22T10:35:14.847Z,29.77
2022-11-22T10:38:32.612Z,37.92
2022-11-22T10:41:28.639Z,45.65
2022-11-22T10:44:21.030Z,44.35
2022-11-22T10:47:09.639Z,47.03
2022-11-22T10:49:40.356Z,38.42
2022-11-22T10:52:32.629Z,43.75
2022-11-22T10:55:22.366Z,44.45
2022-11-22T10:58:08.429Z,52.20
2022-11-22T11:00:43.976Z,62.20
2022-11-22T11:03:44.040Z,66.78
2022-11-22T11:06:29.570Z,45.67
2022-11-22T11:12:19.795Z,51.20
2022-11-22T11:14:53.612Z,51.75
2022-11-22T11:17:30.057Z,46.65
2022-11-22T11:20:03.600Z,44.90
2022-11-22T11:23:12.426Z,46.22
2022-11-22T11:25:40.773Z,46.05
2022-11-22T11:28:30.170Z,43.55
2022-11-22T11:31:19.088Z,42.00
2022-11-22T11:33:47.612Z,43.30
2022-11-22T11:36:24.062Z,51.08
2022-11-22T11:38:57.136Z,60.33
2022-11-22T11:41:38.834Z,49.33
2022-11-22T11:44:29.298Z,53.58
2022-11-22T11:46:58.696Z,50.42
2022-11-22T11:49:31.654Z,54.47
2022-11-22T11:52:19.701Z,57.78
2022-11-22T11:54:54.320Z,50.03
2022-11-22T11:57:34.104Z,56.92
2022-11-22T12:00:07.092Z,58.28
2022-11-22T12:02:51.002Z,55.72
2022-11-22T12:05:19.547Z,56.05
2022-11-22T12:07:48.313Z,60.28
2022-11-22T12:10:47.254Z,59.25
2022-11-22T12:13:21.572Z,55.50
2022-11-22T12:16:03.385Z,51.90
2022-11-22T12:18:44.726Z,53.15
2022-11-22T12:21:28.964Z,52.78
2022-11-22T12:27:10.661Z,49.60
2022-11-22T12:32:16.250Z,49.17
2022-11-22T12:35:18.781Z,57.63
2022-11-22T12:38:25.137Z,56.03
2022-11-22T12:40:57.459Z,56.40
2022-11-22T12:43:36.417Z,55.20
2022-11-22T12:46:18.925Z,58.22
2022-11-22T12:49:26.837Z,63.00
2022-11-22T12:52:10.786Z,53.88
2022-11-22T12:55:15.345Z,59.85
2022-11-22T12:58:25.832Z,56.72
2022-11-22T13:01:16.333Z,56.33
2022-11-22T13:04:11.538Z,51.67
2022-11-22T13:06:45.264Z,50.55
2022-11-22T13:09:20.808Z,63.10
2022-11-22T13:11:58.207Z,57.55
2022-11-22T13:14:44.819Z,57.67
2022-11-22T13:17:17.072Z,52.90
2022-11-22T13:20:23.267Z,48.25
2022-11-22T13:23:11.391Z,52.83
2022-11-22T13:25:45.597Z,56.40
2022-11-22T13:28:20.567Z,57.40
2022-11-22T13:31:10.248Z,59.05
2022-11-22T13:33:57.025Z,50.13
2022-11-22T13:36:31.875Z,54.20
2022-11-22T13:39:23.736Z,55.25
2022-11-22T13:41:57.784Z,54.55
2022-11-22T13:44:49.202Z,55.70
2022-11-22T13:47:17.598Z,56.47
2022-11-22T13:49:49.203Z,61.45
2022-11-22T13:54:48.926Z,48.67
2022-11-22T14:00:15.197Z,40.80
2022-11-22T14:03:43.676Z,33.53
2022-11-22T14:06:26.113Z,34.00
2022-11-22T14:09:38.355Z,44.20
2022-11-22T14:12:29.517Z,53.38
2022-11-22T14:15:37.859Z,46.40
2022-11-22T14:18:46.133Z,30.83
2022-11-22T14:21:48.713Z,34.38
2022-11-22T14:24:43.778Z,32.00
2022-11-22T14:27:20.385Z,34.88
2022-11-22T14:30:23.539Z,43.55
2022-11-22T14:33:13.749Z,49.38
2022-11-22T14:36:07.524Z,40.75
2022-11-22T14:38:45.595Z,48.35
2022-11-22T14:41:28.941Z,44.50
2022-11-22T14:44:20.254Z,39.70
2022-11-22T14:47:04.655Z,42.95
2022-11-22T14:49:47.160Z,35.78
2022-11-22T14:55:17.441Z,45.63
2022-11-22T14:57:51.885Z,39.78
2022-11-22T15:00:22.230Z,39.33
2022-11-22T15:03:20.655Z,47.13
2022-11-22T15:09:21.960Z,36.33
2022-11-22T15:09:50.643Z,37.20
2022-11-22T15:12:21.601Z,48.42
2022-11-22T15:59:44.885Z,32.85
2022-11-22T16:02:32.415Z,38.65
2022-11-22T16:06:06.485Z,40.30
2022-11-22T16:07:57.047Z,51.25
2022-11-22T16:10:37.912Z,46.55
2022-11-22T16:13:23.101Z,42.27
2022-11-22T16:16:13.782Z,46.40
2022-11-22T16:18:43.792Z,47.35
2022-11-22T16:21:11.638Z,37.83
2022-11-22T16:23:45.489Z,44.67
2022-11-22T16:26:21.959Z,35.97
2022-11-22T16:28:54.923Z,49.75
2022-11-22T16:31:27.674Z,51.08
2022-11-22T16:33:57.067Z,53.38
2022-11-22T16:36:29.668Z,50.08
2022-11-22T16:38:58.631Z,45.70
2022-11-22T16:41:29.502Z,44.38
2022-11-22T16:44:21.298Z,44.30
2022-11-22T16:46:49.231Z,50.47
2022-11-22T16:49:20.462Z,44.58
2022-11-22T16:51:50.349Z,52.75
2022-11-22T16:54:20.775Z,39.28
2022-11-22T16:56:48.979Z,50.10
2022-11-22T16:59:17.043Z,53.10
2022-11-22T17:01:45.361Z,45.70
2022-11-22T17:04:26.560Z,51.30
2022-11-22T17:06:54.811Z,39.63
2022-11-22T17:09:22.768Z,34.95
2022-11-22T17:11:51.182Z,49.42
2022-11-22T17:14:19.632Z,37.78
2022-11-22T17:16:47.869Z,38.35
2022-11-22T17:22:07.245Z,51.83
2022-11-22T17:24:36.016Z,48.85
2022-11-22T17:27:04.050Z,49.42
2022-11-22T17:29:49.912Z,53.38
2022-11-22T17:32:19.957Z,50.13
2022-11-22T17:34:47.933Z,49.50
2022-11-22T17:37:15.851Z,49.88
2022-11-22T17:39:43.837Z,45.65
2022-11-22T17:42:12.208Z,55.63
2022-11-22T17:44:40.077Z,55.05
2022-11-22T17:47:08.982Z,54.75
2022-11-22T17:49:37.357Z,55.22
2022-11-22T17:52:06.264Z,42.55
2022-11-22T17:54:34.550Z,48.40
2022-11-22T17:57:02.641Z,53.83
2022-11-22T17:59:30.965Z,50.78
2022-11-22T18:01:59.209Z,48.55
2022-11-22T18:04:27.363Z,50.70
2022-11-22T18:06:57.562Z,52.78
2022-11-22T18:09:26.093Z,47.05
2022-11-22T18:11:55.897Z,51.90
2022-11-22T18:14:23.915Z,49.47
2022-11-22T18:16:51.975Z,49.65
2022-11-22T18:19:20.878Z,54.40
2022-11-22T18:21:49.379Z,49.63
2022-11-22T18:24:17.494Z,45.03
2022-11-22T18:26:45.595Z,45.65
2022-11-22T18:32:02.940Z,45.88
2022-11-22T18:34:31.673Z,49.75
2022-11-22T18:37:03.058Z,47.78
2022-11-22T18:39:41.803Z,48.03
2022-11-22T18:42:15.283Z,44.47
2022-11-22T18:44:43.981Z,50.13
2022-11-22T18:47:12.011Z,43.67
2022-11-22T18:49:40.242Z,41.33
2022-11-22T18:52:10.700Z,47.83
2022-11-22T18:54:41.369Z,46.55
2022-11-22T18:57:10.053Z,51.92
2022-11-22T18:59:38.064Z,50.33
2022-11-22T19:02:06.766Z,46.88
2022-11-22T19:04:35.131Z,48.45
2022-11-22T19:07:03.193Z,43.17
2022-11-22T19:09:32.786Z,43.78
2022-11-22T19:12:01.200Z,46.08
2022-11-22T19:14:29.869Z,50.65
2022-11-22T19:16:58.043Z,43.47
2022-11-22T19:19:26.644Z,52.95
2022-11-22T19:21:54.680Z,43.58
2022-11-22T19:24:22.703Z,43.83
2022-11-22T19:26:51.169Z,49.22
2022-11-22T19:29:19.382Z,54.40
2022-11-22T19:31:48.299Z,46.80
2022-11-22T19:34:16.701Z,46.53
2022-11-22T19:36:44.961Z,49.90
2022-11-22T19:39:16.609Z,40.03
2022-11-22T19:41:45.505Z,43.28
2022-11-22T19:44:14.623Z,51.08
2022-11-22T19:46:42.744Z,69.95
2022-11-22T19:49:11.112Z,54.17
2022-11-22T19:51:39.250Z,53.72
2022-11-22T19:54:07.612Z,56.50
2022-11-22T19:56:38.665Z,60.15
2022-11-22T19:59:10.766Z,60.20
2022-11-22T20:01:41.762Z,64.65
2022-11-22T20:04:13.328Z,60.50
2022-11-22T20:06:44.856Z,60.35
2022-11-22T20:09:16.359Z,57.90
2022-11-22T20:11:45.638Z,64.72
2022-11-22T20:14:13.524Z,56.92
2022-11-22T20:16:42.120Z,53.90
2022-11-22T20:19:12.582Z,54.65
2022-11-22T20:21:41.132Z,51.63
2022-11-22T20:24:09.721Z,52.92
2022-11-22T20:26:37.890Z,55.05
2022-11-22T20:29:08.589Z,48.35
2022-11-22T20:31:38.948Z,47.42
2022-11-22T20:34:10.215Z,53.67
2022-11-22T20:36:41.426Z,40.33
2022-11-22T20:39:10.890Z,48.25
2022-11-22T20:41:40.466Z,50.55
2022-11-22T20:44:14.825Z,46.30
2022-11-22T20:46:45.357Z,42.92
2022-11-22T20:49:18.075Z,50.20
2022-11-22T20:51:46.330Z,49.47
2022-11-22T20:54:14.543Z,51.92
2022-11-22T20:56:43.051Z,50.85
2022-11-22T20:59:14.303Z,47.83
2022-11-22T21:01:45.405Z,50.95
2022-11-22T21:04:19.144Z,50.40
2022-11-22T21:06:47.481Z,51.92
2022-11-22T21:09:16.866Z,44.67
2022-11-22T21:11:45.652Z,32.38
2022-11-22T21:14:13.874Z,49.15
2022-11-22T21:16:45.264Z,43.75
2022-11-22T21:19:16.423Z,44.90
2022-11-22T21:21:46.246Z,52.33
2022-11-22T21:24:14.366Z,47.30
2022-11-22T21:26:42.711Z,52.47
2022-11-22T21:29:16.533Z,50.53
2022-11-22T21:31:45.259Z,52.85
2022-11-22T21:34:13.632Z,50.78
2022-11-22T21:36:43.491Z,45.60
2022-11-22T21:39:13.737Z,45.60
2022-11-22T21:41:42.583Z,49.38
2022-11-22T21:44:11.228Z,43.50
2022-11-22T21:46:39.843Z,52.58
2022-11-22T21:49:08.186Z,36.85
2022-11-22T21:51:37.239Z,54.10
2022-11-22T21:54:05.897Z,47.47
2022-11-22T21:56:35.583Z,45.67
2022-11-22T21:59:04.019Z,46.58
2022-11-22T22:01:32.938Z,50.78
2022-11-22T22:04:01.251Z,44.00
2022-11-22T22:06:29.664Z,45.00
2022-11-22T22:08:57.942Z,49.78
2022-11-22T22:11:26.212Z,43.65
2022-11-22T22:13:55.753Z,49.17
2022-11-22T22:16:26.071Z,51.05
2022-11-22T22:18:54.508Z,40.67
2022-11-22T22:21:22.573Z,43.58
2022-11-22T22:23:50.709Z,41.92
2022-11-22T22:26:18.773Z,50.00
2022-11-22T22:28:47.202Z,45.17
2022-11-22T22:31:22.730Z,40.47
2022-11-22T22:33:57.068Z,53.53
2022-11-22T22:36:27.271Z,47.33
2022-11-22T22:38:55.831Z,45.33
2022-11-22T22:41:23.873Z,48.47
2022-11-22T22:43:51.931Z,46.45
2022-11-22T22:46:22.928Z,50.22
2022-11-22T22:48:52.164Z,47.50
2022-11-22T22:51:32.281Z,43.75
2022-11-22T22:54:01.579Z,44.63
2022-11-22T22:56:32.488Z,40.15
2022-11-22T22:59:01.187Z,46.35
2022-11-22T23:01:31.350Z,45.22
2022-11-22T23:04:02.072Z,46.05
2022-11-22T23:06:32.840Z,45.47
2022-11-22T23:09:01.585Z,40.07
2022-11-22T23:11:51.288Z,48.88
2022-11-22T23:14:24.253Z,43.60
2022-11-22T23:16:57.314Z,43.05
2022-11-22T23:19:27.383Z,41.95
2022-11-22T23:21:55.874Z,37.92
2022-11-22T23:24:24.059Z,40.72
2022-11-22T23:26:52.195Z,40.58
2022-11-22T23:29:20.439Z,28.27
2022-11-22T23:31:48.341Z,38.40
2022-11-22T23:34:16.359Z,41.15
2022-11-22T23:36:44.864Z,34.13
2022-11-22T23:39:12.777Z,36.42
2022-11-22T23:41:41.226Z,39.10
2022-11-22T23:44:09.533Z,38.55
2022-11-22T23:46:37.623Z,37.05
2022-11-22T23:49:06.314Z,34.83
2022-11-22T23:51:36.829Z,35.90
2022-11-22T23:54:06.350Z,28.50
2022-11-22T23:56:36.508Z,29.52
2022-11-22T23:59:05.750Z,29.33
